createdAt,value
2023-04-16T00:00:53.308Z,66.07
2023-04-16T00:01:55.030Z,66.06
2023-04-16T00:02:56.675Z,66.48
2023-04-16T00:03:58.507Z,66.15
2023-04-16T00:05:00.371Z,66.48
2023-04-16T00:06:01.962Z,66.01
2023-04-16T00:07:03.553Z,66.58
2023-04-16T00:08:05.129Z,66.49
2023-04-16T00:09:06.674Z,66.48
2023-04-16T00:10:08.476Z,66.88
2023-04-16T00:11:10.101Z,66.33
2023-04-16T00:12:11.656Z,66.22
2023-04-16T00:13:13.217Z,66.20
2023-04-16T00:14:14.750Z,66.16
2023-04-16T00:15:16.429Z,66.65
2023-04-16T00:16:18.026Z,66.25
2023-04-16T00:17:19.536Z,66.38
2023-04-16T00:18:21.834Z,66.41
2023-04-16T00:19:23.670Z,66.69
2023-04-16T00:20:25.282Z,66.93
2023-04-16T00:21:26.862Z,66.72
2023-04-16T00:22:28.566Z,66.28
2023-04-16T00:23:30.613Z,65.90
2023-04-16T00:24:32.164Z,66.71
2023-04-16T00:25:34.012Z,66.62
2023-04-16T00:26:35.552Z,66.85
2023-04-16T00:27:40.315Z,66.46
2023-04-16T00:28:41.918Z,66.30
2023-04-16T00:29:43.423Z,66.47
2023-04-16T00:30:45.039Z,66.80
2023-04-16T00:31:46.619Z,66.79
2023-04-16T00:32:48.132Z,66.68
2023-04-16T00:33:49.751Z,66.53
2023-04-16T00:34:51.259Z,67.17
2023-04-16T00:35:52.852Z,66.49
2023-04-16T00:36:54.380Z,67.20
2023-04-16T00:37:55.881Z,66.83
2023-04-16T00:38:57.565Z,66.57
2023-04-16T00:39:59.076Z,66.89
2023-04-16T00:41:00.627Z,67.23
2023-04-16T00:42:02.104Z,67.50
2023-04-16T00:43:03.632Z,67.58
2023-04-16T00:44:05.143Z,67.04
2023-04-16T00:45:07.235Z,66.98
2023-04-16T00:46:08.875Z,66.56
2023-04-16T00:47:10.743Z,66.66
2023-04-16T00:48:12.288Z,66.19
2023-04-16T00:49:13.972Z,67.26
2023-04-16T00:50:15.694Z,67.01
2023-04-16T00:51:18.467Z,66.67
2023-04-16T00:52:19.958Z,66.79
2023-04-16T00:53:21.458Z,66.77
2023-04-16T00:54:23.047Z,66.89
2023-04-16T00:55:24.579Z,66.29
2023-04-16T00:56:26.808Z,67.30
2023-04-16T00:57:28.332Z,67.11
2023-04-16T00:58:29.983Z,67.08
2023-04-16T00:59:32.144Z,66.68
2023-04-16T01:00:33.676Z,66.86
2023-04-16T01:01:35.444Z,66.38
2023-04-16T01:02:37.400Z,66.75
2023-04-16T01:03:48.968Z,66.28
2023-04-16T01:04:51.642Z,66.15
2023-04-16T01:05:53.202Z,66.13
2023-04-16T01:06:54.773Z,66.50
2023-04-16T01:07:59.427Z,66.45
2023-04-16T01:09:01.198Z,66.44
2023-04-16T01:10:03.305Z,66.50
2023-04-16T01:11:05.042Z,66.10
2023-04-16T01:12:06.545Z,66.80
2023-04-16T01:13:08.043Z,66.54
2023-04-16T01:14:09.597Z,66.58
2023-04-16T01:15:11.364Z,66.63
2023-04-16T01:16:13.183Z,66.63
2023-04-16T01:17:14.712Z,66.45
2023-04-16T01:18:17.112Z,66.40
2023-04-16T01:19:18.671Z,66.47
2023-04-16T01:20:20.435Z,66.42
2023-04-16T01:21:21.948Z,66.62
2023-04-16T01:22:23.491Z,66.44
2023-04-16T01:23:25.224Z,66.17
2023-04-16T01:24:26.761Z,66.41
2023-04-16T01:25:28.475Z,66.41
2023-04-16T01:26:30.280Z,66.23
2023-04-16T01:27:32.473Z,65.90
2023-04-16T01:28:34.016Z,65.68
2023-04-16T01:29:35.542Z,66.36
2023-04-16T01:30:37.071Z,66.10
2023-04-16T01:31:38.623Z,65.91
2023-04-16T01:32:40.439Z,65.85
2023-04-16T01:33:42.038Z,65.64
2023-04-16T01:34:43.554Z,65.82
2023-04-16T01:35:45.246Z,66.18
2023-04-16T01:36:46.813Z,65.97
2023-04-16T01:37:49.949Z,65.76
2023-04-16T01:38:51.616Z,66.09
2023-04-16T01:39:53.127Z,65.89
2023-04-16T01:41:00.311Z,65.77
2023-04-16T01:42:02.443Z,66.40
2023-04-16T01:43:04.348Z,66.32
2023-04-16T01:44:06.065Z,66.58
2023-04-16T01:45:08.081Z,66.25
2023-04-16T01:46:13.994Z,66.57
2023-04-16T01:47:15.537Z,66.12
2023-04-16T01:48:17.061Z,66.48
2023-04-16T01:49:18.891Z,66.08
2023-04-16T01:50:20.816Z,66.40
2023-04-16T01:51:22.397Z,66.40
2023-04-16T01:52:23.950Z,66.34
2023-04-16T01:53:25.557Z,66.33
2023-04-16T01:54:27.408Z,67.07
2023-04-16T01:55:28.968Z,66.69
2023-04-16T01:56:30.493Z,66.59
2023-04-16T01:57:32.047Z,66.91
2023-04-16T01:58:34.071Z,66.67
2023-04-16T01:59:35.962Z,67.21
2023-04-16T02:00:39.514Z,66.56
2023-04-16T02:01:42.695Z,67.57
2023-04-16T02:02:44.565Z,66.67
2023-04-16T02:03:46.664Z,66.89
2023-04-16T02:04:48.744Z,67.36
2023-04-16T02:05:51.594Z,67.30
2023-04-16T02:06:53.183Z,66.66
2023-04-16T02:07:54.737Z,67.08
2023-04-16T02:08:56.273Z,66.88
2023-04-16T02:09:58.321Z,67.32
2023-04-16T02:11:00.393Z,67.32
2023-04-16T02:12:04.996Z,66.80
2023-04-16T02:13:06.567Z,66.95
2023-04-16T02:14:09.016Z,66.54
2023-04-16T02:15:11.000Z,67.00
2023-04-16T02:16:12.578Z,67.41
2023-04-16T02:17:15.337Z,67.03
2023-04-16T02:18:16.923Z,66.83
2023-04-16T02:19:18.473Z,67.05
2023-04-16T02:20:19.996Z,67.38
2023-04-16T02:21:21.560Z,67.37
2023-04-16T02:22:23.184Z,67.61
2023-04-16T02:23:24.823Z,66.87
2023-04-16T02:24:26.786Z,66.97
2023-04-16T02:25:29.006Z,67.29
2023-04-16T02:26:30.656Z,67.31
2023-04-16T02:27:32.189Z,67.30
2023-04-16T02:28:33.773Z,67.42
2023-04-16T02:29:36.148Z,67.62
2023-04-16T02:30:37.914Z,67.91
2023-04-16T02:31:39.626Z,67.83
2023-04-16T02:32:41.204Z,67.98
2023-04-16T02:33:42.738Z,68.29
2023-04-16T02:34:44.597Z,67.48
2023-04-16T02:35:46.140Z,67.39
2023-04-16T02:36:47.679Z,67.41
2023-04-16T02:37:49.230Z,67.62
2023-04-16T02:38:50.749Z,67.29
2023-04-16T02:39:53.608Z,66.80
2023-04-16T02:40:55.156Z,67.09
2023-04-16T02:41:57.977Z,66.89
2023-04-16T02:42:59.534Z,67.50
2023-04-16T02:44:01.388Z,67.02
2023-04-16T02:45:03.198Z,67.27
2023-04-16T02:46:04.832Z,66.95
2023-04-16T02:47:06.388Z,67.31
2023-04-16T02:48:09.770Z,67.16
2023-04-16T02:49:11.495Z,66.79
2023-04-16T02:50:13.344Z,67.18
2023-04-16T02:51:14.880Z,67.47
2023-04-16T02:52:16.469Z,67.67
2023-04-16T02:53:17.977Z,67.31
2023-04-16T02:54:19.504Z,67.25
2023-04-16T02:55:21.466Z,66.93
2023-04-16T02:56:22.999Z,66.82
2023-04-16T02:57:24.547Z,67.19
2023-04-16T02:58:26.254Z,66.84
2023-04-16T02:59:27.757Z,66.92
2023-04-16T03:00:29.327Z,66.89
2023-04-16T03:01:30.995Z,66.71
2023-04-16T03:02:32.664Z,66.46
2023-04-16T03:03:34.267Z,66.38
2023-04-16T03:04:35.880Z,66.37
2023-04-16T03:05:39.730Z,67.13
2023-04-16T03:06:41.940Z,65.95
2023-04-16T03:07:43.457Z,66.52
2023-04-16T03:08:45.213Z,66.55
2023-04-16T03:09:46.860Z,66.45
2023-04-16T03:10:48.388Z,67.24
2023-04-16T03:11:49.958Z,67.52
2023-04-16T03:12:51.489Z,67.32
2023-04-16T03:13:53.836Z,67.65
2023-04-16T03:14:55.723Z,67.59
2023-04-16T03:15:57.272Z,67.51
2023-04-16T03:16:58.878Z,67.23
2023-04-16T03:18:00.873Z,67.45
2023-04-16T03:19:02.380Z,66.89
2023-04-16T03:20:04.587Z,67.26
2023-04-16T03:21:06.433Z,67.22
2023-04-16T03:22:07.979Z,67.31
2023-04-16T03:23:09.535Z,67.12
2023-04-16T03:24:11.459Z,67.34
2023-04-16T03:25:13.401Z,66.95
2023-04-16T03:26:14.915Z,67.39
2023-04-16T03:27:16.479Z,67.20
2023-04-16T03:28:18.002Z,66.90
2023-04-16T03:29:19.587Z,67.04
2023-04-16T03:30:21.526Z,66.99
2023-04-16T03:31:26.097Z,67.03
2023-04-16T03:32:27.795Z,66.63
2023-04-16T03:33:29.347Z,66.65
2023-04-16T03:34:30.977Z,67.33
2023-04-16T03:35:33.350Z,66.91
2023-04-16T03:36:34.868Z,67.24
2023-04-16T03:37:36.392Z,66.99
2023-04-16T03:38:37.931Z,67.14
2023-04-16T03:39:39.463Z,66.83
2023-04-16T03:40:41.038Z,66.64
2023-04-16T03:41:43.018Z,66.65
2023-04-16T03:42:44.643Z,66.63
2023-04-16T03:43:46.224Z,66.70
2023-04-16T03:44:47.759Z,67.14
2023-04-16T03:45:49.606Z,67.18
2023-04-16T03:46:51.237Z,67.11
2023-04-16T03:47:53.003Z,67.19
2023-04-16T03:48:54.662Z,67.08
2023-04-16T03:49:56.162Z,67.26
2023-04-16T03:50:58.021Z,67.91
2023-04-16T03:51:59.568Z,67.82
2023-04-16T03:53:01.114Z,68.05
2023-04-16T03:54:02.772Z,68.23
2023-04-16T03:55:04.647Z,67.70
2023-04-16T03:56:06.701Z,68.15
2023-04-16T03:57:08.223Z,67.51
2023-04-16T03:58:09.907Z,67.82
2023-04-16T03:59:11.615Z,67.82
2023-04-16T04:00:13.275Z,67.64
2023-04-16T04:01:14.805Z,67.11
2023-04-16T04:02:16.469Z,67.31
2023-04-16T04:03:18.653Z,67.63
2023-04-16T04:04:20.765Z,66.98
2023-04-16T04:05:22.367Z,67.05
2023-04-16T04:06:23.952Z,67.29
2023-04-16T04:07:25.538Z,66.84
2023-04-16T04:08:27.088Z,66.98
2023-04-16T04:09:28.573Z,67.46
2023-04-16T04:10:32.375Z,67.60
2023-04-16T04:11:33.906Z,67.00
2023-04-16T04:12:35.393Z,67.45
2023-04-16T04:13:36.980Z,67.39
2023-04-16T04:14:40.116Z,67.24
2023-04-16T04:15:41.778Z,67.20
2023-04-16T04:16:43.385Z,66.84
2023-04-16T04:17:44.973Z,67.51
2023-04-16T04:18:46.631Z,67.59
2023-04-16T04:20:00.534Z,67.82
2023-04-16T04:21:07.630Z,67.82
2023-04-16T04:22:09.184Z,67.47
2023-04-16T04:23:10.957Z,67.85
2023-04-16T04:24:12.485Z,68.12
2023-04-16T04:25:14.089Z,68.34
2023-04-16T04:26:15.825Z,68.50
2023-04-16T04:27:17.472Z,67.90
2023-04-16T04:28:19.089Z,67.95
2023-04-16T04:29:20.691Z,67.98
2023-04-16T04:30:22.206Z,68.08
2023-04-16T04:31:24.100Z,68.13
2023-04-16T04:32:25.761Z,68.53
2023-04-16T04:33:27.781Z,68.75
2023-04-16T04:34:29.399Z,68.40
2023-04-16T04:35:31.200Z,68.51
2023-04-16T04:36:32.745Z,68.39
2023-04-16T04:37:34.336Z,68.35
2023-04-16T04:38:36.147Z,68.36
2023-04-16T04:39:37.705Z,68.06
2023-04-16T04:40:39.297Z,68.18
2023-04-16T04:41:41.047Z,68.00
2023-04-16T04:42:42.618Z,68.42
2023-04-16T04:43:44.177Z,68.52
2023-04-16T04:44:46.124Z,68.65
2023-04-16T04:45:49.149Z,68.43
2023-04-16T04:46:50.920Z,68.33
2023-04-16T04:47:53.011Z,68.00
2023-04-16T04:48:54.605Z,67.91
2023-04-16T04:49:56.185Z,67.83
2023-04-16T04:50:58.042Z,67.72
2023-04-16T04:51:59.629Z,67.71
2023-04-16T04:53:01.403Z,67.60
2023-04-16T04:54:03.072Z,67.92
2023-04-16T04:55:05.127Z,67.83
2023-04-16T04:56:12.104Z,67.50
2023-04-16T04:57:14.521Z,67.14
2023-04-16T04:58:16.102Z,67.24
2023-04-16T04:59:17.648Z,67.14
2023-04-16T05:00:19.322Z,67.40
2023-04-16T05:01:21.365Z,66.74
2023-04-16T05:02:22.984Z,67.14
2023-04-16T05:03:24.656Z,66.96
2023-04-16T05:04:26.297Z,66.96
2023-04-16T05:05:28.124Z,67.39
2023-04-16T05:06:29.783Z,67.44
2023-04-16T05:07:32.261Z,67.58
2023-04-16T05:08:33.796Z,66.90
2023-04-16T05:09:35.373Z,67.05
2023-04-16T05:10:36.902Z,66.74
2023-04-16T05:11:39.064Z,66.96
2023-04-16T05:12:40.646Z,66.92
2023-04-16T05:13:42.184Z,67.64
2023-04-16T05:14:43.830Z,67.44
2023-04-16T05:15:46.104Z,67.49
2023-04-16T05:16:47.768Z,67.29
2023-04-16T05:17:49.350Z,67.39
2023-04-16T05:18:50.898Z,67.04
2023-04-16T05:19:52.501Z,66.83
2023-04-16T05:20:54.114Z,67.24
2023-04-16T05:21:55.735Z,66.56
2023-04-16T05:22:57.297Z,67.08
2023-04-16T05:23:58.898Z,66.64
2023-04-16T05:25:00.840Z,66.70
2023-04-16T05:26:02.333Z,66.81
2023-04-16T05:27:03.973Z,66.42
2023-04-16T05:28:05.626Z,65.75
2023-04-16T05:29:07.408Z,66.84
2023-04-16T05:30:09.573Z,66.29
2023-04-16T05:31:11.101Z,66.60
2023-04-16T05:32:12.658Z,66.37
2023-04-16T05:33:14.155Z,66.28
2023-04-16T05:34:16.192Z,66.73
2023-04-16T05:35:17.892Z,67.20
2023-04-16T05:36:19.547Z,66.62
2023-04-16T05:37:21.064Z,66.92
2023-04-16T05:38:22.579Z,67.44
2023-04-16T05:39:24.094Z,67.62
2023-04-16T05:40:26.241Z,67.44
2023-04-16T05:41:27.742Z,67.25
2023-04-16T05:42:29.235Z,66.79
2023-04-16T05:43:30.753Z,67.11
2023-04-16T05:44:32.283Z,67.94
2023-04-16T05:45:39.555Z,67.93
2023-04-16T05:46:41.141Z,68.08
2023-04-16T05:47:42.824Z,68.16
2023-04-16T05:48:44.417Z,67.84
2023-04-16T05:49:45.955Z,67.85
2023-04-16T05:50:47.446Z,67.80
2023-04-16T05:51:50.718Z,67.95
2023-04-16T05:52:52.545Z,67.61
2023-04-16T05:53:54.032Z,67.10
2023-04-16T05:54:55.839Z,67.18
2023-04-16T05:55:57.382Z,67.56
2023-04-16T05:57:01.069Z,67.36
2023-04-16T05:58:04.463Z,67.59
2023-04-16T05:59:06.078Z,67.18
2023-04-16T06:00:08.405Z,68.19
2023-04-16T06:01:11.121Z,68.30
2023-04-16T06:02:12.718Z,67.66
2023-04-16T06:03:14.520Z,68.20
2023-04-16T06:04:16.443Z,68.26
2023-04-16T06:05:18.196Z,67.87
2023-04-16T06:06:19.754Z,67.67
2023-04-16T06:07:21.563Z,68.15
2023-04-16T06:08:23.212Z,68.37
2023-04-16T06:09:24.986Z,67.90
2023-04-16T06:10:26.546Z,67.85
2023-04-16T06:11:29.136Z,67.47
2023-04-16T06:12:31.149Z,67.56
2023-04-16T06:13:32.662Z,67.46
2023-04-16T06:14:34.234Z,67.94
2023-04-16T06:15:35.909Z,69.01
2023-04-16T06:16:37.452Z,68.18
2023-04-16T06:17:38.980Z,67.90
2023-04-16T06:18:40.613Z,68.06
2023-04-16T06:19:42.140Z,67.99
2023-04-16T06:20:43.828Z,68.19
2023-04-16T06:21:45.470Z,67.84
2023-04-16T06:22:46.986Z,68.00
2023-04-16T06:23:48.523Z,67.87
2023-04-16T06:24:50.036Z,67.62
2023-04-16T06:25:51.748Z,68.47
2023-04-16T06:26:54.371Z,68.43
2023-04-16T06:27:56.005Z,67.78
2023-04-16T06:28:57.464Z,67.76
2023-04-16T06:29:58.981Z,67.70
2023-04-16T06:31:00.579Z,67.56
2023-04-16T06:32:03.557Z,67.64
2023-04-16T06:33:04.974Z,66.81
2023-04-16T06:34:06.515Z,66.99
2023-04-16T06:35:08.299Z,66.92
2023-04-16T06:36:09.826Z,66.85
2023-04-16T06:37:11.291Z,67.48
2023-04-16T06:38:12.787Z,67.64
2023-04-16T06:39:14.343Z,67.32
2023-04-16T06:40:15.977Z,66.87
2023-04-16T06:41:17.584Z,67.32
2023-04-16T06:42:20.393Z,67.20
2023-04-16T06:43:22.060Z,66.37
2023-04-16T06:44:23.614Z,66.49
2023-04-16T06:45:25.280Z,67.62
2023-04-16T06:46:26.840Z,67.53
2023-04-16T06:47:28.435Z,67.39
2023-04-16T06:48:30.363Z,67.84
2023-04-16T06:49:31.874Z,67.87
2023-04-16T06:50:33.952Z,67.94
2023-04-16T06:51:35.495Z,67.72
2023-04-16T06:52:37.047Z,68.21
2023-04-16T06:53:38.701Z,67.83
2023-04-16T06:54:40.292Z,67.89
2023-04-16T06:55:41.796Z,67.53
2023-04-16T06:56:43.292Z,67.15
2023-04-16T06:57:44.831Z,67.63
2023-04-16T06:58:46.709Z,67.72
2023-04-16T06:59:48.411Z,67.66
2023-04-16T07:00:50.008Z,67.53
2023-04-16T07:01:52.498Z,67.45
2023-04-16T07:02:56.314Z,67.30
2023-04-16T07:03:59.771Z,66.70
2023-04-16T07:05:01.420Z,67.18
2023-04-16T07:06:02.955Z,67.68
2023-04-16T07:07:04.497Z,67.72
2023-04-16T07:08:06.116Z,67.66
2023-04-16T07:09:08.387Z,68.21
2023-04-16T07:10:10.410Z,68.32
2023-04-16T07:11:11.932Z,67.59
2023-04-16T07:12:13.515Z,67.68
2023-04-16T07:13:15.106Z,67.51
2023-04-16T07:14:16.747Z,66.71
2023-04-16T07:15:18.306Z,66.73
2023-04-16T07:16:19.883Z,66.59
2023-04-16T07:17:21.804Z,66.60
2023-04-16T07:18:24.443Z,66.96
2023-04-16T07:19:30.470Z,66.67
2023-04-16T07:20:31.993Z,66.82
2023-04-16T07:21:33.515Z,66.75
2023-04-16T07:22:35.274Z,66.94
2023-04-16T07:23:37.114Z,66.74
2023-04-16T07:24:39.023Z,66.22
2023-04-16T07:25:42.354Z,66.47
2023-04-16T07:26:43.952Z,67.08
2023-04-16T07:27:45.444Z,66.26
2023-04-16T07:28:46.945Z,66.25
2023-04-16T07:29:50.308Z,66.94
2023-04-16T07:30:51.943Z,66.75
2023-04-16T07:31:53.443Z,67.47
2023-04-16T07:32:55.745Z,67.38
2023-04-16T07:33:58.172Z,66.88
2023-04-16T07:35:00.422Z,66.71
2023-04-16T07:36:01.964Z,65.93
2023-04-16T07:37:03.478Z,66.68
2023-04-16T07:38:05.368Z,66.49
2023-04-16T07:39:06.865Z,66.77
2023-04-16T07:40:08.851Z,66.62
2023-04-16T07:41:10.429Z,67.19
2023-04-16T07:42:11.999Z,66.62
2023-04-16T07:43:15.441Z,66.34
2023-04-16T07:44:17.064Z,66.56
2023-04-16T07:45:18.921Z,67.05
2023-04-16T07:46:20.544Z,66.98
2023-04-16T07:47:23.256Z,66.29
2023-04-16T07:48:24.943Z,66.02
2023-04-16T07:49:26.448Z,66.12
2023-04-16T07:50:28.229Z,66.60
2023-04-16T07:51:29.741Z,66.62
2023-04-16T07:52:31.228Z,66.35
2023-04-16T07:53:32.792Z,65.88
2023-04-16T07:54:34.312Z,66.57
2023-04-16T07:55:35.944Z,66.63
2023-04-16T07:56:37.486Z,66.19
2023-04-16T07:57:39.031Z,67.00
2023-04-16T07:58:40.705Z,65.81
2023-04-16T07:59:42.208Z,64.76
2023-04-16T08:00:43.931Z,64.35
2023-04-16T08:01:45.512Z,64.43
2023-04-16T08:02:47.174Z,65.02
2023-04-16T08:03:48.945Z,64.84
2023-04-16T08:04:50.695Z,65.50
2023-04-16T08:05:52.594Z,64.97
2023-04-16T08:06:54.423Z,65.83
2023-04-16T08:07:56.049Z,66.15
2023-04-16T08:08:57.566Z,66.31
2023-04-16T08:09:59.084Z,65.46
2023-04-16T08:11:00.645Z,65.36
2023-04-16T08:12:02.342Z,65.08
2023-04-16T08:13:03.871Z,65.32
2023-04-16T08:14:05.542Z,65.81
2023-04-16T08:15:07.703Z,64.86
2023-04-16T08:16:09.277Z,63.68
2023-04-16T08:17:11.929Z,64.76
2023-04-16T08:18:16.039Z,64.50
2023-04-16T08:19:17.599Z,63.57
2023-04-16T08:20:19.525Z,64.34
2023-04-16T08:21:21.126Z,65.24
2023-04-16T08:22:22.969Z,64.95
2023-04-16T08:23:24.469Z,65.82
2023-04-16T08:24:26.301Z,65.92
2023-04-16T08:25:27.840Z,64.95
2023-04-16T08:26:29.378Z,65.30
2023-04-16T08:27:33.014Z,64.59
2023-04-16T08:28:34.636Z,64.20
2023-04-16T08:29:36.189Z,65.06
2023-04-16T08:30:37.734Z,65.16
2023-04-16T08:31:39.478Z,64.55
2023-04-16T08:32:41.118Z,65.53
2023-04-16T08:33:43.327Z,64.74
2023-04-16T08:34:44.962Z,64.00
2023-04-16T08:35:46.514Z,64.19
2023-04-16T08:36:48.122Z,64.38
2023-04-16T08:37:49.616Z,63.99
2023-04-16T08:38:52.308Z,63.95
2023-04-16T08:39:53.927Z,64.50
2023-04-16T08:40:56.095Z,64.81
2023-04-16T08:41:57.662Z,64.05
2023-04-16T08:42:59.402Z,64.97
2023-04-16T08:44:01.224Z,64.93
2023-04-16T08:45:23.031Z,64.39
2023-04-16T08:46:25.791Z,64.35
2023-04-16T08:47:27.419Z,63.68
2023-04-16T08:48:29.400Z,64.06
2023-04-16T08:49:31.152Z,63.70
2023-04-16T08:50:33.284Z,63.37
2023-04-16T08:51:35.664Z,63.01
2023-04-16T08:52:38.386Z,63.70
2023-04-16T08:53:50.657Z,63.22
2023-04-16T08:55:15.176Z,62.18
2023-04-16T08:56:16.770Z,61.24
2023-04-16T08:57:19.713Z,62.70
2023-04-16T08:58:22.135Z,62.01
2023-04-16T08:59:23.670Z,62.27
2023-04-16T09:00:25.428Z,62.73
2023-04-16T09:01:26.944Z,62.79
2023-04-16T09:02:28.737Z,62.36
2023-04-16T09:03:33.367Z,62.95
2023-04-16T09:04:37.365Z,62.65
2023-04-16T09:05:39.132Z,62.33
2023-04-16T09:06:41.650Z,62.46
2023-04-16T09:07:47.340Z,62.98
2023-04-16T09:08:48.898Z,62.58
2023-04-16T09:09:50.433Z,62.40
2023-04-16T09:10:52.212Z,62.82
2023-04-16T09:11:53.993Z,62.46
2023-04-16T09:12:56.178Z,61.79
2023-04-16T09:13:57.777Z,62.17
2023-04-16T09:15:01.188Z,62.39
2023-04-16T09:16:03.422Z,61.67
2023-04-16T09:17:04.998Z,61.91
2023-04-16T09:18:06.884Z,61.61
2023-04-16T09:19:08.648Z,61.79
2023-04-16T09:20:11.281Z,62.14
2023-04-16T09:21:12.821Z,61.50
2023-04-16T09:22:14.426Z,61.63
2023-04-16T09:23:16.108Z,61.97
2023-04-16T09:24:18.139Z,62.37
2023-04-16T09:25:20.959Z,62.12
2023-04-16T09:26:22.652Z,61.77
2023-04-16T09:27:26.007Z,62.32
2023-04-16T09:28:45.100Z,62.48
2023-04-16T09:29:46.829Z,62.33
2023-04-16T09:30:48.367Z,62.42
2023-04-16T09:32:06.706Z,62.56
2023-04-16T09:33:17.785Z,63.03
2023-04-16T09:34:19.328Z,62.45
2023-04-16T09:35:21.025Z,62.41
2023-04-16T09:36:23.201Z,61.23
2023-04-16T09:37:30.052Z,61.16
2023-04-16T09:38:50.666Z,61.44
2023-04-16T09:39:58.673Z,61.96
2023-04-16T09:41:09.835Z,61.77
2023-04-16T09:42:11.887Z,61.13
2023-04-16T09:43:17.242Z,61.93
2023-04-16T09:44:18.967Z,61.61
2023-04-16T09:45:20.870Z,61.40
2023-04-16T09:46:22.471Z,61.37
2023-04-16T09:47:25.538Z,61.03
2023-04-16T09:48:33.068Z,60.88
2023-04-16T09:49:36.246Z,61.37
2023-04-16T09:50:37.799Z,61.70
2023-04-16T09:51:43.041Z,61.82
2023-04-16T09:52:49.269Z,62.62
2023-04-16T09:53:52.585Z,62.33
2023-04-16T09:54:54.168Z,61.66
2023-04-16T09:55:59.251Z,61.74
2023-04-16T09:57:00.909Z,60.90
2023-04-16T09:58:02.645Z,60.58
2023-04-16T09:59:04.293Z,60.79
2023-04-16T10:00:08.953Z,61.31
2023-04-16T10:01:11.909Z,61.05
2023-04-16T10:02:15.669Z,61.01
2023-04-16T10:03:19.023Z,61.19
2023-04-16T10:04:22.304Z,60.44
2023-04-16T10:05:24.090Z,60.31
2023-04-16T10:06:27.242Z,60.53
2023-04-16T10:07:29.105Z,60.46
2023-04-16T10:08:30.833Z,60.12
2023-04-16T10:09:33.582Z,60.07
2023-04-16T10:10:35.110Z,60.48
2023-04-16T10:11:36.639Z,59.22
2023-04-16T10:12:38.178Z,58.91
2023-04-16T10:13:39.746Z,58.24
2023-04-16T10:14:41.379Z,58.05
2023-04-16T10:15:43.020Z,58.65
2023-04-16T10:16:44.597Z,59.42
2023-04-16T10:17:46.398Z,59.61
2023-04-16T10:18:48.038Z,59.80
2023-04-16T10:19:49.548Z,59.86
2023-04-16T10:20:51.143Z,60.63
2023-04-16T10:21:52.977Z,59.52
2023-04-16T10:22:54.640Z,59.03
2023-04-16T10:23:56.197Z,58.34
2023-04-16T10:24:58.111Z,57.58
2023-04-16T10:26:00.821Z,57.59
2023-04-16T10:27:02.644Z,57.20
2023-04-16T10:28:04.210Z,57.20
2023-04-16T10:29:06.312Z,58.09
2023-04-16T10:30:08.480Z,58.83
2023-04-16T10:31:10.253Z,58.92
2023-04-16T10:32:11.884Z,59.47
2023-04-16T10:33:14.231Z,59.28
2023-04-16T10:34:16.100Z,59.80
2023-04-16T10:35:21.398Z,60.27
2023-04-16T10:36:23.675Z,60.38
2023-04-16T10:37:31.647Z,60.67
2023-04-16T10:38:33.245Z,61.20
2023-04-16T10:39:37.331Z,60.60
2023-04-16T10:40:38.898Z,61.17
2023-04-16T10:41:40.480Z,61.18
2023-04-16T10:42:42.080Z,60.88
2023-04-16T10:43:48.133Z,61.59
2023-04-16T10:44:49.647Z,61.03
2023-04-16T10:45:51.186Z,61.08
2023-04-16T10:46:52.991Z,60.56
2023-04-16T10:47:57.371Z,60.69
2023-04-16T10:49:03.085Z,60.61
2023-04-16T10:50:15.936Z,60.31
2023-04-16T10:51:28.121Z,60.43
2023-04-16T10:52:29.674Z,60.35
2023-04-16T10:53:31.587Z,59.71
2023-04-16T10:54:34.820Z,58.51
2023-04-16T10:55:39.081Z,59.09
2023-04-16T10:56:40.703Z,59.01
2023-04-16T10:57:42.221Z,58.59
2023-04-16T10:58:43.894Z,59.61
2023-04-16T10:59:46.009Z,59.39
2023-04-16T11:00:51.197Z,59.87
2023-04-16T11:01:54.669Z,60.18
2023-04-16T11:02:56.457Z,60.15
2023-04-16T11:04:04.491Z,60.59
2023-04-16T11:05:06.621Z,60.48
2023-04-16T11:06:13.029Z,60.65
2023-04-16T11:07:19.582Z,60.30
2023-04-16T11:08:21.327Z,58.83
2023-04-16T11:09:42.582Z,59.45
2023-04-16T11:10:44.085Z,58.97
2023-04-16T11:11:45.613Z,59.08
2023-04-16T11:12:47.265Z,58.84
2023-04-16T11:13:49.083Z,59.57
2023-04-16T11:15:03.964Z,59.37
2023-04-16T11:16:05.656Z,58.78
2023-04-16T11:17:07.191Z,59.60
2023-04-16T11:18:09.844Z,60.45
2023-04-16T11:19:16.706Z,60.54
2023-04-16T11:20:24.983Z,62.03
2023-04-16T11:21:26.631Z,61.11
2023-04-16T11:22:28.158Z,61.71
2023-04-16T11:23:29.679Z,62.58
2023-04-16T11:24:32.263Z,62.45
2023-04-16T11:25:34.267Z,62.88
2023-04-16T11:26:35.998Z,62.25
2023-04-16T11:27:37.555Z,61.48
2023-04-16T11:28:39.470Z,61.74
2023-04-16T11:29:41.558Z,62.79
2023-04-16T11:30:43.194Z,63.26
2023-04-16T11:31:51.783Z,62.93
2023-04-16T11:32:53.420Z,61.80
2023-04-16T11:33:56.119Z,62.20
2023-04-16T11:34:57.641Z,62.72
2023-04-16T11:35:59.235Z,62.09
2023-04-16T11:37:00.850Z,62.41
2023-04-16T11:38:02.351Z,63.82
2023-04-16T11:39:04.217Z,63.32
2023-04-16T11:40:12.520Z,63.82
2023-04-16T11:41:19.564Z,62.15
2023-04-16T11:42:25.131Z,61.75
2023-04-16T11:43:26.703Z,61.16
2023-04-16T11:44:28.243Z,65.34
2023-04-16T11:45:29.841Z,63.78
2023-04-16T11:46:40.772Z,63.66
2023-04-16T11:47:46.733Z,63.79
2023-04-16T11:48:52.778Z,63.93
2023-04-16T11:49:54.277Z,63.27
2023-04-16T11:50:59.058Z,63.14
2023-04-16T11:52:00.585Z,63.31
2023-04-16T11:53:05.864Z,62.98
2023-04-16T11:54:10.342Z,62.50
2023-04-16T11:55:13.284Z,63.92
2023-04-16T11:56:14.824Z,63.82
2023-04-16T11:57:23.394Z,62.30
2023-04-16T11:58:24.911Z,61.64
2023-04-16T11:59:28.148Z,61.65
2023-04-16T12:00:35.416Z,61.52
2023-04-16T12:01:37.567Z,61.22
2023-04-16T12:02:46.374Z,62.08
2023-04-16T12:03:49.808Z,62.45
2023-04-16T12:04:52.207Z,62.10
2023-04-16T12:05:53.762Z,61.27
2023-04-16T12:07:11.837Z,61.63
2023-04-16T12:08:14.030Z,60.71
2023-04-16T12:09:28.056Z,60.84
2023-04-16T12:10:30.100Z,60.33
2023-04-16T12:11:41.013Z,60.22
2023-04-16T12:12:42.551Z,60.09
2023-04-16T12:13:50.702Z,59.31
2023-04-16T12:14:52.292Z,58.02
2023-04-16T12:15:54.962Z,58.33
2023-04-16T12:17:16.529Z,58.96
2023-04-16T12:18:18.994Z,59.55
2023-04-16T12:19:21.081Z,59.92
2023-04-16T12:20:22.667Z,59.77
2023-04-16T12:21:24.337Z,58.97
2023-04-16T12:22:36.755Z,61.17
2023-04-16T12:23:38.876Z,60.34
2023-04-16T12:24:40.927Z,60.97
2023-04-16T12:25:43.083Z,60.77
2023-04-16T12:26:46.635Z,59.87
2023-04-16T12:27:53.851Z,59.49
2023-04-16T12:28:55.857Z,59.52
2023-04-16T12:30:07.719Z,60.03
2023-04-16T12:31:10.781Z,58.56
2023-04-16T12:32:22.610Z,58.62
2023-04-16T12:33:24.208Z,57.58
2023-04-16T12:34:49.168Z,56.78
2023-04-16T12:35:48.047Z,56.95
2023-04-16T12:36:49.980Z,57.11
2023-04-16T12:37:51.735Z,56.92
2023-04-16T12:38:53.357Z,56.76
2023-04-16T12:39:55.356Z,56.41
2023-04-16T12:40:58.294Z,56.65
2023-04-16T12:41:59.940Z,56.98
2023-04-16T12:43:01.437Z,57.71
2023-04-16T12:44:12.030Z,56.16
2023-04-16T12:45:14.253Z,57.02
2023-04-16T12:46:15.866Z,55.77
2023-04-16T12:47:17.537Z,55.79
2023-04-16T12:48:19.050Z,55.87
2023-04-16T12:49:21.074Z,56.44
2023-04-16T12:50:22.598Z,56.36
2023-04-16T12:51:24.216Z,56.63
2023-04-16T12:52:25.861Z,56.27
2023-04-16T12:53:27.364Z,55.13
2023-04-16T12:54:31.619Z,55.40
2023-04-16T12:55:33.184Z,55.24
2023-04-16T12:56:35.589Z,55.87
2023-04-16T12:57:37.261Z,55.94
2023-04-16T12:58:38.809Z,55.43
2023-04-16T12:59:40.342Z,55.54
2023-04-16T13:00:41.862Z,55.14
2023-04-16T13:01:43.363Z,54.59
2023-04-16T13:02:45.024Z,54.12
2023-04-16T13:03:47.087Z,54.12
2023-04-16T13:04:49.368Z,53.55
2023-04-16T13:05:51.177Z,53.97
2023-04-16T13:06:52.754Z,54.02
2023-04-16T13:07:54.486Z,54.07
2023-04-16T13:08:56.195Z,54.25
2023-04-16T13:09:57.748Z,53.85
2023-04-16T13:10:59.388Z,53.04
2023-04-16T13:12:00.869Z,52.91
2023-04-16T13:13:02.410Z,53.29
2023-04-16T13:14:04.426Z,53.32
2023-04-16T13:15:06.306Z,53.08
2023-04-16T13:16:08.696Z,52.16
2023-04-16T13:17:10.456Z,51.88
2023-04-16T13:18:12.061Z,52.22
2023-04-16T13:19:14.100Z,51.44
2023-04-16T13:20:15.716Z,51.28
2023-04-16T13:21:17.264Z,52.51
2023-04-16T13:22:18.780Z,51.97
2023-04-16T13:23:20.378Z,51.28
2023-04-16T13:24:23.412Z,51.80
2023-04-16T13:25:24.899Z,52.24